createdAt,value
2022-11-28T00:02:27.093Z,16.90
2022-11-28T00:05:14.807Z,18.57
2022-11-28T00:08:02.225Z,18.35
2022-11-28T00:10:49.383Z,20.37
2022-11-28T00:13:37.284Z,18.32
2022-11-28T00:16:26.084Z,20.60
2022-11-28T00:19:14.687Z,16.55
2022-11-28T00:22:03.112Z,16.77
2022-11-28T00:24:50.806Z,18.02
2022-11-28T00:27:38.492Z,20.45
2022-11-28T00:30:25.737Z,15.88
2022-11-28T00:33:13.185Z,18.23
2022-11-28T00:36:02.761Z,17.50
2022-11-28T00:38:50.958Z,16.12
2022-11-28T00:41:38.308Z,16.75
2022-11-28T00:44:25.412Z,16.87
2022-11-28T00:47:12.643Z,19.00
2022-11-28T00:50:00.186Z,18.48
2022-11-28T00:52:47.623Z,17.87
2022-11-28T00:55:34.801Z,17.73
2022-11-28T00:58:22.123Z,16.30
2022-11-28T01:01:16.425Z,16.65
2022-11-28T01:04:06.566Z,17.40
2022-11-28T01:06:53.644Z,18.62
2022-11-28T01:09:41.022Z,17.23
2022-11-28T01:12:28.417Z,19.30
2022-11-28T01:15:15.962Z,20.82
2022-11-28T01:18:03.865Z,18.30
2022-11-28T01:20:51.327Z,19.07
2022-11-28T01:23:38.789Z,18.17
2022-11-28T01:26:28.934Z,16.80
2022-11-28T01:29:16.517Z,17.98
2022-11-28T01:32:03.807Z,16.17
2022-11-28T01:34:51.141Z,19.87
2022-11-28T01:37:38.392Z,17.05
2022-11-28T01:40:25.964Z,19.25
2022-11-28T01:43:13.353Z,21.85
2022-11-28T01:46:00.685Z,17.82
2022-11-28T01:48:48.046Z,18.73
2022-11-28T01:51:36.776Z,17.12
2022-11-28T01:54:26.306Z,17.60
2022-11-28T01:57:17.092Z,17.20
2022-11-28T02:00:17.380Z,18.25
2022-11-28T02:03:10.794Z,18.73
2022-11-28T02:05:58.942Z,17.57
2022-11-28T02:08:46.256Z,17.70
2022-11-28T02:11:48.798Z,19.50
2022-11-28T02:14:54.385Z,17.87
2022-11-28T02:18:05.383Z,16.57
2022-11-28T02:20:58.813Z,19.60
2022-11-28T02:23:58.213Z,18.32
2022-11-28T02:26:57.870Z,19.52
2022-11-28T02:30:15.766Z,19.52
2022-11-28T02:36:06.929Z,20.88
2022-11-28T02:39:13.615Z,21.45
2022-11-28T02:42:25.290Z,22.10
2022-11-28T02:45:15.828Z,20.70
2022-11-28T02:48:15.281Z,21.60
2022-11-28T02:51:08.692Z,19.85
2022-11-28T02:53:57.562Z,24.63
2022-11-28T02:56:53.222Z,21.95
2022-11-28T02:59:43.877Z,20.45
2022-11-28T03:02:33.801Z,22.37
2022-11-28T03:05:41.836Z,21.35
2022-11-28T03:08:37.822Z,20.80
2022-11-28T03:11:37.635Z,20.43
2022-11-28T03:14:27.660Z,22.37
2022-11-28T03:17:24.028Z,20.68
2022-11-28T03:20:17.484Z,20.15
2022-11-28T03:23:23.144Z,24.57
2022-11-28T03:26:25.201Z,19.65
2022-11-28T03:29:36.847Z,17.85
2022-11-28T03:32:33.545Z,19.77
2022-11-28T03:35:23.466Z,20.75
2022-11-28T03:38:13.996Z,22.30
2022-11-28T03:41:04.255Z,21.35
2022-11-28T03:43:54.536Z,24.23
2022-11-28T03:46:48.388Z,22.13
2022-11-28T03:49:38.749Z,21.42
2022-11-28T03:52:32.080Z,19.95
2022-11-28T03:55:25.232Z,22.95
2022-11-28T03:58:21.041Z,20.80
2022-11-28T04:01:31.357Z,25.70
2022-11-28T04:04:24.731Z,22.45
2022-11-28T04:07:24.248Z,19.95
2022-11-28T04:10:35.442Z,22.48
2022-11-28T04:13:31.753Z,20.45
2022-11-28T04:16:25.305Z,18.90
2022-11-28T04:19:21.727Z,22.50
2022-11-28T04:22:18.040Z,20.25
2022-11-28T04:25:08.551Z,20.88
2022-11-28T04:28:01.659Z,19.98
2022-11-28T04:30:51.476Z,20.77
2022-11-28T04:33:42.092Z,21.62
2022-11-28T04:36:31.031Z,20.80
2022-11-28T04:39:20.705Z,21.50
2022-11-28T04:42:16.461Z,18.62
2022-11-28T04:45:12.214Z,24.30
2022-11-28T04:47:59.652Z,21.00
2022-11-28T04:50:49.964Z,22.27
2022-11-28T04:53:46.339Z,22.80
2022-11-28T04:56:36.803Z,21.48
2022-11-28T04:59:26.787Z,21.62
2022-11-28T05:02:16.579Z,20.10
2022-11-28T05:05:09.960Z,20.17
2022-11-28T05:07:59.625Z,22.13
2022-11-28T05:10:47.505Z,24.90
2022-11-28T05:13:34.745Z,24.02
2022-11-28T05:16:22.537Z,24.65
2022-11-28T05:19:09.984Z,22.77
2022-11-28T05:21:57.254Z,21.90
2022-11-28T05:24:45.126Z,23.62
2022-11-28T05:27:32.655Z,22.93
2022-11-28T05:30:20.045Z,19.75
2022-11-28T05:33:07.631Z,24.10
2022-11-28T05:35:55.776Z,26.10
2022-11-28T05:39:04.098Z,21.15
2022-11-28T05:41:51.618Z,21.73
2022-11-28T05:44:39.154Z,23.20
2022-11-28T05:47:26.432Z,21.95
2022-11-28T05:50:13.552Z,20.17
2022-11-28T05:53:01.262Z,23.55
2022-11-28T05:55:48.850Z,21.37
2022-11-28T05:58:36.473Z,24.52
2022-11-28T06:01:26.764Z,20.77
2022-11-28T06:04:14.155Z,20.70
2022-11-28T06:07:01.220Z,21.52
2022-11-28T06:09:48.881Z,21.52
2022-11-28T06:12:36.347Z,23.65
2022-11-28T06:15:23.842Z,24.65
2022-11-28T06:18:11.205Z,24.30
2022-11-28T06:21:00.037Z,23.38
2022-11-28T06:23:47.618Z,25.92
2022-11-28T06:26:34.766Z,20.60
2022-11-28T06:29:22.498Z,24.23
2022-11-28T06:32:09.663Z,26.42
2022-11-28T06:34:56.871Z,21.20
2022-11-28T06:37:44.156Z,24.40
2022-11-28T06:40:32.278Z,26.60
2022-11-28T06:43:19.643Z,26.02
2022-11-28T06:46:11.890Z,30.43
2022-11-28T06:48:57.633Z,22.52
2022-11-28T06:51:45.957Z,24.18
2022-11-28T06:54:33.053Z,26.15
2022-11-28T06:57:21.099Z,23.98
2022-11-28T07:00:09.309Z,27.20
2022-11-28T07:02:57.515Z,28.12
2022-11-28T07:05:44.960Z,26.37
2022-11-28T07:08:33.395Z,30.35
2022-11-28T07:11:23.352Z,26.57
2022-11-28T07:14:10.949Z,33.33
2022-11-28T07:16:58.326Z,27.77
2022-11-28T07:19:50.533Z,28.77
2022-11-28T07:22:34.845Z,27.58
2022-11-28T07:25:22.136Z,32.15
2022-11-28T07:28:09.261Z,25.57
2022-11-28T07:31:09.189Z,28.47
2022-11-28T07:33:56.742Z,27.02
2022-11-28T07:36:43.941Z,27.07
2022-11-28T07:39:31.341Z,27.30
2022-11-28T07:42:20.047Z,27.95
2022-11-28T07:45:08.093Z,28.62
2022-11-28T07:47:55.449Z,29.42
2022-11-28T07:50:42.915Z,30.95
2022-11-28T07:53:30.342Z,26.55
2022-11-28T07:56:20.567Z,26.02
2022-11-28T07:59:08.365Z,27.52
2022-11-28T08:01:55.868Z,27.25
2022-11-28T08:04:49.370Z,26.45
2022-11-28T08:07:32.133Z,27.27
2022-11-28T08:10:20.139Z,27.62
2022-11-28T08:13:07.411Z,27.65
2022-11-28T08:15:55.062Z,27.90
2022-11-28T08:18:43.613Z,35.38
2022-11-28T08:21:33.191Z,24.47
2022-11-28T08:24:20.707Z,31.40
2022-11-28T08:27:08.667Z,23.98
2022-11-28T08:29:56.303Z,27.10
2022-11-28T08:32:43.456Z,29.50
2022-11-28T08:35:30.951Z,25.62
2022-11-28T08:38:18.881Z,24.30
2022-11-28T08:41:11.800Z,25.30
2022-11-28T08:43:59.053Z,23.18
2022-11-28T08:46:46.577Z,23.12
2022-11-28T08:49:33.944Z,24.63
2022-11-28T08:52:22.417Z,25.43
2022-11-28T08:55:10.412Z,23.20
2022-11-28T08:57:57.621Z,21.65
2022-11-28T09:00:45.086Z,25.02
2022-11-28T09:03:32.688Z,24.70
2022-11-28T09:06:21.390Z,23.95
2022-11-28T09:09:09.045Z,29.10
2022-11-28T09:11:56.699Z,24.55
2022-11-28T09:14:44.058Z,22.30
2022-11-28T09:17:31.293Z,26.25
2022-11-28T09:20:18.554Z,25.88
2022-11-28T09:23:06.616Z,25.12
2022-11-28T09:25:53.989Z,22.20
2022-11-28T09:28:41.897Z,22.67
2022-11-28T09:31:29.417Z,26.15
2022-11-28T09:34:17.117Z,27.73
2022-11-28T09:37:05.221Z,25.00
2022-11-28T09:40:11.896Z,24.23
2022-11-28T09:42:44.482Z,22.98
2022-11-28T09:45:33.445Z,24.50
2022-11-28T09:48:32.710Z,24.37
2022-11-28T09:51:39.814Z,25.05
2022-11-28T09:54:39.213Z,20.82
2022-11-28T09:57:47.845Z,21.45
2022-11-28T10:00:41.681Z,21.62
2022-11-28T10:03:35.012Z,25.35
2022-11-28T10:06:31.378Z,24.18
2022-11-28T10:09:24.610Z,24.05
2022-11-28T10:12:43.066Z,23.73
2022-11-28T10:15:42.782Z,21.65
2022-11-28T10:18:35.914Z,23.62
2022-11-28T10:21:26.571Z,20.65
2022-11-28T10:24:20.009Z,20.08
2022-11-28T10:27:08.035Z,20.57
2022-11-28T10:29:58.649Z,20.15
2022-11-28T10:32:48.943Z,26.35
2022-11-28T10:35:41.982Z,22.17
2022-11-28T10:38:34.035Z,21.07
2022-11-28T10:41:30.389Z,21.97
2022-11-28T10:44:30.059Z,22.73
2022-11-28T10:47:22.826Z,25.15
2022-11-28T10:50:13.922Z,21.95
2022-11-28T10:53:10.372Z,19.57
2022-11-28T10:56:11.299Z,19.40
2022-11-28T10:59:01.029Z,19.80
2022-11-28T11:01:50.447Z,21.45
2022-11-28T11:04:40.011Z,24.77
2022-11-28T11:07:31.065Z,20.17
2022-11-28T11:10:21.904Z,21.90
2022-11-28T11:13:19.409Z,20.97
2022-11-28T11:16:12.190Z,20.37
2022-11-28T11:18:59.146Z,22.13
2022-11-28T11:21:49.591Z,22.15
2022-11-28T11:24:37.140Z,20.05
2022-11-28T11:27:24.775Z,17.12
2022-11-28T11:30:21.616Z,19.82
2022-11-28T11:33:14.591Z,19.98
2022-11-28T11:36:05.576Z,21.97
2022-11-28T11:38:53.602Z,21.62
2022-11-28T11:41:43.607Z,19.95
2022-11-28T11:44:35.013Z,24.77
2022-11-28T11:47:34.381Z,24.77
2022-11-28T11:50:24.718Z,18.85
2022-11-28T11:53:14.422Z,19.37
2022-11-28T11:56:04.104Z,19.75
2022-11-28T11:58:54.655Z,23.65
2022-11-28T12:01:44.093Z,21.85
2022-11-28T12:04:52.433Z,20.20
2022-11-28T12:07:33.436Z,21.05
2022-11-28T12:10:23.826Z,22.93
2022-11-28T12:13:14.082Z,22.17
2022-11-28T12:16:33.172Z,22.67
2022-11-28T12:19:29.619Z,19.37
2022-11-28T12:22:25.368Z,22.53
2022-11-28T12:25:15.438Z,21.02
2022-11-28T12:28:08.819Z,23.75
2022-11-28T12:31:21.548Z,22.45
2022-11-28T12:34:27.057Z,26.48
2022-11-28T12:37:55.167Z,30.35
2022-11-28T12:40:43.358Z,24.65
2022-11-28T12:43:51.562Z,22.70
2022-11-28T12:47:03.208Z,25.72
2022-11-28T12:50:16.571Z,24.98
2022-11-28T12:53:12.779Z,21.15
2022-11-28T12:56:02.999Z,22.40
2022-11-28T12:59:05.213Z,31.02
2022-11-28T13:01:55.968Z,26.97
2022-11-28T13:04:51.486Z,23.70
2022-11-28T13:08:11.320Z,28.73
2022-11-28T13:11:22.693Z,28.42
2022-11-28T13:14:15.768Z,26.37
2022-11-28T13:17:14.648Z,30.75
2022-11-28T13:20:12.288Z,25.62
2022-11-28T13:23:20.408Z,24.65
2022-11-28T13:26:22.970Z,25.80
2022-11-28T13:29:19.446Z,23.62
2022-11-28T13:32:15.160Z,31.17
2022-11-28T13:35:03.643Z,26.10
2022-11-28T13:38:48.279Z,26.62
2022-11-28T13:41:59.521Z,25.40
2022-11-28T13:44:26.619Z,28.38
2022-11-28T13:47:27.728Z,22.95
2022-11-28T13:50:32.695Z,29.10
2022-11-28T13:53:25.637Z,22.15
2022-11-28T13:56:27.620Z,27.13
2022-11-28T13:59:20.827Z,22.98
2022-11-28T14:02:23.085Z,22.22
2022-11-28T14:05:25.967Z,29.07
2022-11-28T14:08:08.376Z,25.68
2022-11-28T14:11:05.599Z,27.87
2022-11-28T14:14:13.804Z,26.77
2022-11-28T14:17:30.296Z,26.10
2022-11-28T14:20:40.275Z,29.75
2022-11-28T14:23:39.809Z,25.02
2022-11-28T14:26:37.199Z,32.78
2022-11-28T14:29:28.030Z,30.77
2022-11-28T14:32:31.432Z,35.55
2022-11-28T14:35:38.281Z,44.77
2022-11-28T14:38:34.559Z,29.73
2022-11-28T14:41:21.925Z,30.23
2022-11-28T14:44:46.209Z,29.23
2022-11-28T14:47:36.889Z,32.50
2022-11-28T14:50:27.338Z,33.60
2022-11-28T14:53:37.946Z,28.98
2022-11-28T14:56:29.634Z,31.82
2022-11-28T14:59:19.114Z,29.05
2022-11-28T15:02:15.839Z,30.32
2022-11-28T15:05:12.251Z,32.43
2022-11-28T15:08:20.262Z,32.78
2022-11-28T15:14:16.788Z,33.92
2022-11-28T15:17:08.392Z,33.58
2022-11-28T15:19:57.199Z,33.63
2022-11-28T15:22:46.471Z,33.83
2022-11-28T15:25:35.539Z,38.92
2022-11-28T15:28:25.310Z,37.48
2022-11-28T15:31:15.816Z,33.90
2022-11-28T15:34:03.546Z,36.80
2022-11-28T15:36:53.872Z,33.10
2022-11-28T15:39:42.342Z,33.40
2022-11-28T15:42:37.709Z,31.25
2022-11-28T15:45:28.431Z,31.23
2022-11-28T15:48:39.709Z,36.48
2022-11-28T15:51:32.764Z,31.73
2022-11-28T15:54:25.867Z,31.52
2022-11-28T15:57:23.400Z,29.45
2022-11-28T16:00:19.610Z,31.85
2022-11-28T16:03:07.682Z,30.92
2022-11-28T16:05:58.106Z,34.95
2022-11-28T16:09:01.091Z,36.45
2022-11-28T16:11:51.498Z,37.95
2022-11-28T16:14:42.011Z,31.00
2022-11-28T16:17:34.525Z,27.22
2022-11-28T16:20:30.889Z,29.52
2022-11-28T16:23:23.782Z,30.80
2022-11-28T16:26:29.257Z,28.07
2022-11-28T16:29:16.391Z,30.62
2022-11-28T16:32:27.848Z,32.73
2022-11-28T16:35:18.134Z,33.15
2022-11-28T16:38:15.142Z,30.02
2022-11-28T16:41:02.842Z,32.48
2022-11-28T16:43:59.139Z,30.77
2022-11-28T16:46:58.220Z,32.65
2022-11-28T16:49:51.243Z,30.90
2022-11-28T16:52:47.174Z,30.27
2022-11-28T16:55:40.383Z,30.20
2022-11-28T16:58:27.684Z,30.17
2022-11-28T17:01:14.884Z,29.60
2022-11-28T17:04:01.801Z,32.90
2022-11-28T17:06:49.221Z,28.67
2022-11-28T17:09:36.694Z,34.13
2022-11-28T17:12:36.021Z,30.17
2022-11-28T17:15:23.585Z,28.65
2022-11-28T17:18:10.806Z,34.25
2022-11-28T17:20:59.738Z,32.10
2022-11-28T17:23:47.119Z,31.17
2022-11-28T17:26:34.290Z,34.83
2022-11-28T17:29:24.556Z,28.35
2022-11-28T17:32:14.554Z,30.88
2022-11-28T17:35:03.463Z,34.40
2022-11-28T17:37:50.874Z,30.75
2022-11-28T17:40:40.309Z,34.20
2022-11-28T17:43:27.750Z,32.38
2022-11-28T17:46:14.920Z,32.23
2022-11-28T17:49:02.399Z,28.10
2022-11-28T17:51:50.778Z,34.25
2022-11-28T17:54:38.137Z,34.23
2022-11-28T17:57:25.415Z,37.70
2022-11-28T18:00:13.848Z,32.78
2022-11-28T18:03:01.246Z,35.08
2022-11-28T18:05:50.524Z,34.90
2022-11-28T18:08:38.012Z,34.10
2022-11-28T18:11:26.076Z,34.95
2022-11-28T18:14:13.934Z,40.23
2022-11-28T18:17:01.073Z,36.83
2022-11-28T18:19:48.989Z,33.28
2022-11-28T18:22:37.857Z,32.70
2022-11-28T18:25:25.987Z,40.98
2022-11-28T18:28:18.811Z,35.75
2022-11-28T18:31:15.181Z,37.65
2022-11-28T18:34:05.585Z,33.95
2022-11-28T18:36:54.667Z,35.70
2022-11-28T18:39:42.362Z,38.23
2022-11-28T18:42:29.967Z,40.85
2022-11-28T18:45:17.106Z,40.08
2022-11-28T18:48:04.514Z,38.73
2022-11-28T18:50:51.851Z,32.58
2022-11-28T18:53:39.600Z,40.08
2022-11-28T18:56:29.357Z,39.27
2022-11-28T18:59:16.657Z,35.15
2022-11-28T19:02:03.855Z,32.38
2022-11-28T19:04:51.119Z,33.65
2022-11-28T19:07:38.621Z,32.30
2022-11-28T19:10:26.024Z,30.75
2022-11-28T19:13:13.245Z,29.90
2022-11-28T19:16:02.399Z,30.12
2022-11-28T19:18:50.101Z,33.60
2022-11-28T19:21:38.522Z,28.05
2022-11-28T19:24:25.949Z,32.60
2022-11-28T19:27:14.677Z,34.08
2022-11-28T19:30:02.100Z,32.35
2022-11-28T19:32:49.585Z,31.40
2022-11-28T19:35:37.021Z,30.12
2022-11-28T19:38:24.612Z,28.73
2022-11-28T19:41:17.388Z,32.55
2022-11-28T19:44:04.469Z,31.40
2022-11-28T19:46:52.861Z,26.45
2022-11-28T19:49:39.931Z,29.12
2022-11-28T19:52:28.886Z,27.75
2022-11-28T19:55:16.011Z,26.17
2022-11-28T19:58:03.409Z,26.68
2022-11-28T20:00:50.662Z,26.75
2022-11-28T20:03:39.587Z,26.23
2022-11-28T20:06:29.623Z,28.23
2022-11-28T20:09:16.791Z,28.90
2022-11-28T20:12:04.045Z,29.75
2022-11-28T20:14:51.527Z,31.62
2022-11-28T20:17:38.655Z,31.68
2022-11-28T20:20:26.083Z,29.63
2022-11-28T20:23:13.355Z,28.40
2022-11-28T20:26:06.142Z,29.02
2022-11-28T20:28:57.076Z,35.45
2022-11-28T20:31:46.168Z,33.20
2022-11-28T20:34:33.831Z,31.20
2022-11-28T20:37:20.996Z,29.45
2022-11-28T20:40:09.125Z,29.55
2022-11-28T20:42:56.654Z,34.33
2022-11-28T20:45:45.618Z,28.85
2022-11-28T20:48:33.166Z,27.45
2022-11-28T20:51:24.911Z,28.45
2022-11-28T20:54:13.504Z,31.35
2022-11-28T20:59:49.486Z,31.40
2022-11-28T21:02:36.824Z,39.27
2022-11-28T21:05:24.439Z,32.03
2022-11-28T21:08:11.634Z,32.20
2022-11-28T21:10:59.124Z,33.85
2022-11-28T21:13:46.814Z,31.93
2022-11-28T21:16:36.996Z,32.80
2022-11-28T21:19:24.517Z,32.40
2022-11-28T21:22:11.700Z,33.83
2022-11-28T21:24:59.001Z,32.25
2022-11-28T21:27:46.832Z,32.42
2022-11-28T21:30:36.557Z,30.68
2022-11-28T21:33:23.966Z,32.30
2022-11-28T21:36:11.915Z,30.82
2022-11-28T21:39:01.798Z,31.48
2022-11-28T21:41:50.912Z,31.60
2022-11-28T21:44:38.308Z,33.35
2022-11-28T21:47:25.489Z,34.65
2022-11-28T21:50:14.062Z,31.62
2022-11-28T21:53:01.678Z,31.23
2022-11-28T21:55:48.970Z,31.87
2022-11-28T21:58:36.270Z,31.23
2022-11-28T22:01:23.900Z,36.48
2022-11-28T22:04:12.198Z,36.63
2022-11-28T22:06:59.586Z,39.38
2022-11-28T22:09:48.681Z,40.28
2022-11-28T22:12:35.925Z,37.60
2022-11-28T22:15:23.469Z,40.50
2022-11-28T22:18:11.962Z,42.25
2022-11-28T22:21:17.374Z,38.83
2022-11-28T22:23:55.422Z,45.73
2022-11-28T22:26:42.697Z,40.23
2022-11-28T22:29:30.103Z,44.83
2022-11-28T22:32:18.327Z,39.48
2022-11-28T22:35:07.754Z,36.50
2022-11-28T22:37:54.996Z,34.33
2022-11-28T22:40:42.530Z,40.00
2022-11-28T22:43:29.978Z,33.38
2022-11-28T22:46:17.836Z,33.48
2022-11-28T22:49:06.782Z,36.75
2022-11-28T22:51:54.456Z,39.60
2022-11-28T22:54:41.890Z,38.67
2022-11-28T22:57:29.480Z,42.23
2022-11-28T23:00:17.202Z,38.42
2022-11-28T23:03:04.977Z,42.25
2022-11-28T23:05:52.300Z,42.23
2022-11-28T23:08:40.205Z,43.38
2022-11-28T23:11:30.264Z,34.55
2022-11-28T23:14:17.567Z,33.92
2022-11-28T23:17:04.791Z,36.73
2022-11-28T23:19:52.184Z,38.50
2022-11-28T23:22:39.778Z,37.38
2022-11-28T23:25:27.052Z,37.23
2022-11-28T23:28:14.315Z,36.40
2022-11-28T23:31:13.933Z,42.43
2022-11-28T23:34:03.062Z,36.08
2022-11-28T23:36:50.277Z,37.80
2022-11-28T23:39:37.500Z,35.38
2022-11-28T23:42:25.132Z,35.25
2022-11-28T23:45:14.650Z,33.40
2022-11-28T23:48:01.877Z,41.58
2022-11-28T23:50:49.410Z,33.95
2022-11-28T23:53:37.875Z,34.70
2022-11-28T23:56:27.764Z,34.20
2022-11-28T23:59:15.226Z,32.28
